General Aviation Weather

Text Reports

Enter one or more of the following location identifiers separated by a space:

Zip Code, Four-Character ICAO or Three-Character IATA airport codes.

METAR - Aviation Routine Weather Report
KSUE - Sturgeon Bay, Wisconsin
Updated at 11:15 PM GMT on December 18, 2014 (5:15 PM CST):
METAR KSUE 182315Z AUTO 00000KT 10SM CLR M05/M11 A3025 RMK AO1
TAF - Terminal Area Forecast
KSUE - Sturgeon Bay, Wisconsin
Updated at 11:15 PM GMT on December 18, 2014 (5:15 PM CST):
No TAF is currently available for this location.
Decoded:
No decoded TAF is available.
PIREP - Pilot Weather Report
KSUE - Sturgeon Bay, Wisconsin
Updated at 11:15 PM GMT on December 18, 2014 (5:15 PM CST):
No PIREP is currently available for this location.
AIRMET - Airmens Meteorological Information
KSUE - Sturgeon Bay, Wisconsin
Updated at 11:15 PM GMT on December 18, 2014 (5:15 PM CST):
No AIRMET is currently available for this location.
SIGMET - Significant Meteorological Information
KSUE - Sturgeon Bay, Wisconsin
Updated at 11:15 PM GMT on December 18, 2014 (5:15 PM CST):
No SIGMET is currently available for this location.
NOTAM - Notice to Airmen
KSUE - Sturgeon Bay, Wisconsin
Updated at 11:15 PM GMT on December 18, 2014 (5:15 PM CST):
No NOTAM is currently available for this location.
Forecast Area
KSUE - Sturgeon Bay, Wisconsin
Updated at 11:15 PM GMT on December 18, 2014 (5:15 PM CST):
No NOTAM is currently available for this location.
Aviation Weather Maps